Terminal Aerodrome Forecast
Issued by NWS

Home | Current Version | Previous Version | Text Only | Print | Product List | Glossary On
Versions: 1 2 3 4 5 6 7 8 9 10 11 12 13 14 15 16
040
FTUS45 KABQ 251737
TAFGUP
TAF
KGUP 251737Z 2518/2618 23011KT P6SM SCT050 SCT250
     FM252000 24010G16KT P6SM VCSH SCT060 BKN120
      TEMPO 2520/2523 VRB15G25KT 5SM -TSRA BKN050CB
     FM260400 25006KT P6SM SCT060 BKN120
     FM261400 26008KT P6SM SCT120=

USA.gov is the U.S. government's official web portal to all federal, state and local government web resources and services.